Time;durP1;ratioP1;P1;durP2;ratioP2;P2;SDS_P1;SDS_P2;PMS_P1;PMS_P2;Temp;Humidity;BMP_temperature;BMP_pressure;BME280_temperature;BME280_humidity;BME280_pressure;Samples;Min_cycle;Max_cycle;Signal;HPM_P1;HPM_P2
2022/05/03 00:01:18;;;;;;;3.00;2.90;;;;;;;14.51;92.76;99278.88;5111453;28;20199;-64
2022/05/03 00:03:55;;;;;;;2.73;2.63;;;;;;;14.53;92.67;99271.91;5111177;28;20190;-67
2022/05/03 00:06:31;;;;;;;3.60;2.77;;;;;;;14.57;92.32;99272.59;5111419;28;20349;-65
2022/05/03 00:09:04;;;;;;;2.67;2.57;;;;;;;14.62;92.81;99276.63;5112245;28;20200;-64
2022/05/03 00:11:33;;;;;;;3.33;2.93;;;;;;;14.64;93.43;99264.47;5110104;28;20201;-65
2022/05/03 00:14:12;;;;;;;3.07;2.90;;;;;;;14.62;93.41;99266.31;5112080;28;20645;-64
2022/05/03 00:16:39;;;;;;;2.83;2.73;;;;;;;14.64;94.05;99269.63;5110833;28;20278;-65
2022/05/03 00:19:09;;;;;;;3.23;3.13;;;;;;;14.59;93.82;99266.44;5111189;28;20194;-64
2022/05/03 00:21:37;;;;;;;3.10;2.97;;;;;;;14.62;93.96;99266.31;5111988;28;20639;-64
2022/05/03 00:24:05;;;;;;;3.47;3.17;;;;;;;14.63;94.75;99262.81;5111724;28;20677;-65
2022/05/03 00:26:33;;;;;;;3.67;3.57;;;;;;;14.58;94.59;99254.44;5108964;28;20301;-65
2022/05/03 00:29:01;;;;;;;3.47;3.37;;;;;;;14.63;95.07;99262.81;5111778;28;20285;-65
2022/05/03 00:31:29;;;;;;;3.17;2.97;;;;;;;14.57;95.63;99252.78;5111347;28;20211;-65
2022/05/03 00:33:57;;;;;;;3.13;2.97;;;;;;;14.63;95.10;99267.97;5110471;28;20282;-65
2022/05/03 00:36:26;;;;;;;4.43;4.13;;;;;;;14.62;95.82;99263.72;5110924;28;20191;-65
2022/05/03 00:38:53;;;;;;;5.30;4.90;;;;;;;14.59;96.49;99265.63;5104760;28;20734;-65
2022/05/03 00:41:33;;;;;;;6.03;5.57;;;;;;;14.55;96.29;99259.75;5108117;28;20229;-65
2022/05/03 00:44:55;;;;;;;5.43;4.93;;;;;;;14.56;96.73;99265.75;5110861;28;20289;-65
2022/05/03 00:47:02;;;;;;;5.73;5.33;;;;;;;14.59;97.59;99266.44;5109588;28;20268;-65
2022/05/03 00:49:38;;;;;;;5.80;5.40;;;;;;;14.60;97.98;99275.84;5111763;28;20293;-65
2022/05/03 00:52:13;;;;;;;4.90;4.60;;;;;;;14.57;98.13;99263.09;5110903;28;20578;-65
2022/05/03 00:54:53;;;;;;;5.47;4.97;;;;;;;14.50;98.92;99256.59;5111402;28;20277;-65
2022/05/03 00:57:33;;;;;;;5.00;4.70;;;;;;;14.56;99.29;99261.44;5110569;28;20277;-65
2022/05/03 01:00:08;;;;;;;4.50;4.30;;;;;;;14.40;100.00;99234.72;5110300;28;20268;-65
2022/05/03 01:02:57;;;;;;;4.53;4.33;;;;;;;14.52;100.00;99259.91;5107770;28;20721;-65
2022/05/03 01:05:29;;;;;;;4.23;3.93;;;;;;;14.47;100.00;99251.56;5096884;28;20286;-64
2022/05/03 01:08:05;;;;;;;5.93;4.00;;;;;;;14.52;100.00;99259.06;5109810;28;20301;-65
2022/05/03 01:10:35;;;;;;;4.50;4.23;;;;;;;14.51;100.00;99259.97;5109385;28;20198;-64
2022/05/03 01:13:04;;;;;;;4.60;4.40;;;;;;;14.50;100.00;99256.59;5110672;28;20207;-65
2022/05/03 01:15:33;;;;;;;4.03;3.83;;;;;;;14.49;100.00;99254.91;5108918;28;20289;-64
2022/05/03 01:18:12;;;;;;;4.30;4.00;;;;;;;14.49;100.00;99254.91;5111164;27;20623;-65
2022/05/03 01:20:49;;;;;;;4.13;3.93;;;;;;;14.47;100.00;99255.91;5110456;28;20252;-64
2022/05/03 01:23:44;;;;;;;4.40;4.20;;;;;;;14.45;100.00;99250.78;5109990;28;20206;-64
2022/05/03 01:26:27;;;;;;;4.47;4.07;;;;;;;14.40;100.00;99250.19;5106501;28;20202;-64
2022/05/03 01:29:22;;;;;;;5.23;4.77;;;;;;;14.37;100.00;99245.19;5108588;28;20410;-64
2022/05/03 01:31:54;;;;;;;4.77;4.47;;;;;;;14.33;100.00;99243.66;5097748;28;20714;-64
2022/05/03 01:34:25;;;;;;;4.17;3.87;;;;;;;14.31;100.00;99242.88;5108504;28;20287;-64
2022/05/03 01:37:05;;;;;;;4.57;4.27;;;;;;;14.25;100.00;99230.25;5109387;28;20195;-64
2022/05/03 01:39:47;;;;;;;4.57;4.30;;;;;;;14.31;100.00;99235.13;5108000;28;20190;-64
2022/05/03 01:42:25;;;;;;;4.13;3.87;;;;;;;14.30;100.00;99243.78;5108585;28;20223;-64
2022/05/03 01:45:04;;;;;;;4.50;4.17;;;;;;;14.28;100.00;99240.41;5109316;28;20626;-64
2022/05/03 01:47:43;;;;;;;4.90;4.60;;;;;;;14.25;100.00;99243.13;5109961;28;20225;-64
2022/05/03 01:50:18;;;;;;;5.33;4.97;;;;;;;14.22;100.00;99243.28;5109444;28;20273;-64
2022/05/03 01:53:15;;;;;;;4.93;4.63;;;;;;;14.22;100.00;99248.44;5110243;28;20252;-64
2022/05/03 01:55:58;;;;;;;5.63;5.13;;;;;;;14.19;100.00;99246.84;5105449;28;20719;-64
2022/05/03 01:58:33;;;;;;;5.50;5.20;;;;;;;14.22;100.00;99248.44;5107909;28;20222;-64
2022/05/03 02:01:05;;;;;;;5.20;4.90;;;;;;;14.24;100.00;99249.22;5110909;28;20277;-64
2022/05/03 02:03:42;;;;;;;4.77;4.57;;;;;;;14.22;100.00;99250.22;5109982;28;20217;-64
2022/05/03 02:06:11;;;;;;;5.07;4.80;;;;;;;14.16;100.00;99243.56;5109593;28;20285;-64
2022/05/03 02:08:53;;;;;;;4.90;4.60;;;;;;;14.07;100.00;99233.69;5109704;28;20245;-64
2022/05/03 02:11:51;;;;;;;5.10;4.70;;;;;;;14.16;100.00;99251.31;5109144;28;20248;-64
2022/05/03 02:14:45;;;;;;;6.33;4.93;;;;;;;14.19;100.00;99256.31;5097058;28;20199;-64
2022/05/03 02:17:34;;;;;;;5.30;5.00;;;;;;;14.11;100.00;99264.44;5108991;28;20285;-64
2022/05/03 02:20:15;;;;;;;4.80;4.60;;;;;;;14.09;100.00;99257.66;5109906;28;20290;-64
2022/05/03 02:22:56;;;;;;;4.97;4.67;;;;;;;14.07;100.00;99262.91;5109307;28;20705;-64
2022/05/03 02:25:36;;;;;;;5.50;5.10;;;;;;;14.07;100.00;99265.47;5109053;28;20196;-64
2022/05/03 02:28:05;;;;;;;5.00;4.60;;;;;;;14.07;100.00;99267.22;5109203;28;20218;-64
2022/05/03 02:30:34;;;;;;;5.43;5.13;;;;;;;14.01;100.00;99252.03;5108937;28;20292;-64
2022/05/03 02:33:10;;;;;;;4.30;4.10;;;;;;;14.05;100.00;99264.72;5109820;28;20191;-64
2022/05/03 02:35:40;;;;;;;5.53;5.13;;;;;;;14.04;100.00;99259.63;5108783;28;20285;-64
2022/05/03 02:38:07;;;;;;;5.67;5.27;;;;;;;14.02;100.00;99259.69;5108156;28;20643;-64
2022/05/03 02:40:44;;;;;;;6.10;5.60;;;;;;;14.00;100.00;99265.81;5109407;28;20208;-64
2022/05/03 02:43:13;;;;;;;6.37;5.03;;;;;;;13.99;100.00;99271.91;5108954;28;20225;-64
2022/05/03 02:45:59;;;;;;;6.03;5.63;;;;;;;13.97;100.00;99271.13;5109331;28;20281;-64
2022/05/03 02:48:35;;;;;;;5.97;5.60;;;;;;;13.94;100.00;99271.25;5108788;28;20206;-64
2022/05/03 02:51:04;;;;;;;5.60;5.30;;;;;;;13.92;100.00;99273.91;5109515;28;20229;-64
2022/05/03 02:53:43;;;;;;;5.67;5.27;;;;;;;13.86;100.00;99270.78;5107773;28;20281;-64
2022/05/03 02:56:21;;;;;;;6.00;5.63;;;;;;;13.94;100.00;99281.56;5108593;28;20556;-64
2022/05/03 02:59:06;;;;;;;7.03;5.87;;;;;;;13.96;100.00;99284.91;5109838;28;20650;-65
2022/05/03 03:01:49;;;;;;;5.83;5.47;;;;;;;13.95;100.00;99278.09;5107315;28;20285;-64
2022/05/03 03:04:35;;;;;;;5.70;5.23;;;;;;;13.96;100.00;99284.91;5108508;28;20337;-64
2022/05/03 03:07:04;;;;;;;5.53;5.13;;;;;;;13.97;100.00;99284.00;5109177;28;20205;-64
2022/05/03 03:09:42;;;;;;;5.77;5.47;;;;;;;14.00;100.00;99291.59;5107957;28;20285;-64
2022/05/03 03:12:23;;;;;;;6.00;5.60;;;;;;;13.97;100.00;99290.00;5112825;28;20693;-65
2022/05/03 03:14:56;;;;;;;6.73;6.30;;;;;;;13.98;100.00;99290.84;5113464;28;20194;-64
2022/05/03 03:17:30;;;;;;;6.70;6.30;;;;;;;13.99;100.00;99300.25;5109677;28;20206;-64
2022/05/03 03:20:09;;;;;;;7.67;6.97;;;;;;;13.98;100.00;99298.56;5101930;28;20203;-65
2022/05/03 03:22:40;;;;;;;7.60;6.20;;;;;;;14.01;100.00;99308.75;5109889;28;20628;-65
2022/05/03 03:25:11;;;;;;;6.83;5.10;;;;;;;13.99;100.00;99310.56;5112951;28;20198;-64
2022/05/03 03:27:39;;;;;;;6.90;6.40;;;;;;;13.99;100.00;99311.38;5112954;28;20210;-65
2022/05/03 03:30:08;;;;;;;8.00;7.37;;;;;;;13.99;100.00;99315.72;5112127;28;20213;-65
2022/05/03 03:32:37;;;;;;;7.47;7.03;;;;;;;13.97;100.00;99325.25;5113215;28;20712;-64
2022/05/03 03:35:05;;;;;;;7.00;6.43;;;;;;;13.95;100.00;99321.91;5111132;28;20209;-65
2022/05/03 03:37:35;;;;;;;6.93;6.43;;;;;;;13.94;100.00;99322.81;5110757;28;20689;-64
2022/05/03 03:40:02;;;;;;;6.87;6.23;;;;;;;13.95;100.00;99329.63;5110425;28;20583;-65
2022/05/03 03:42:29;;;;;;;7.77;7.17;;;;;;;13.92;100.00;99329.78;5110886;28;20222;-65
2022/05/03 03:45:00;;;;;;;6.60;6.10;;;;;;;13.93;100.00;99326.28;5109915;28;20226;-64
2022/05/03 03:47:30;;;;;;;8.67;7.87;;;;;;;13.91;100.00;99328.94;5110583;27;20214;-64
2022/05/03 03:49:59;;;;;;;8.13;7.40;;;;;;;13.83;100.00;99314.72;5110523;28;20198;-64
2022/05/03 03:52:27;;;;;;;6.93;6.43;;;;;;;13.89;100.00;99340.22;5110741;28;20195;-65
2022/05/03 03:54:56;;;;;;;7.03;6.53;;;;;;;13.79;100.00;99319.19;5112448;28;20193;-64
2022/05/03 03:57:24;;;;;;;6.60;6.20;;;;;;;13.88;100.00;99343.69;5109367;28;20203;-65
2022/05/03 03:59:51;;;;;;;6.43;6.13;;;;;;;13.90;100.00;99336.72;5111457;28;20195;-65
2022/05/03 04:02:19;;;;;;;6.73;6.20;;;;;;;13.90;100.00;99347.03;5110284;28;21252;-65
2022/05/03 04:04:48;;;;;;;7.00;6.50;;;;;;;13.89;100.00;99353.09;5106650;28;20640;-66
2022/05/03 04:07:15;;;;;;;6.93;6.23;;;;;;;13.83;100.00;99340.50;5109348;28;20290;-66
2022/05/03 04:09:42;;;;;;;6.63;6.23;;;;;;;13.89;100.00;99353.09;5107376;27;20327;-65
2022/05/03 04:12:12;;;;;;;6.90;6.50;;;;;;;13.80;100.00;99345.75;5115448;27;20197;-66
2022/05/03 04:14:39;;;;;;;6.60;6.00;;;;;;;13.82;100.00;99352.53;5112446;28;20205;-66
2022/05/03 04:17:06;;;;;;;7.00;6.47;;;;;;;13.82;100.00;99359.44;5111589;28;20579;-66
2022/05/03 04:19:35;;;;;;;7.30;6.90;;;;;;;13.82;100.00;99364.59;5111793;28;20225;-65
2022/05/03 04:22:12;;;;;;;6.23;5.83;;;;;;;13.83;100.00;99358.53;5111753;28;20199;-66
2022/05/03 04:24:40;;;;;;;7.50;6.80;;;;;;;13.85;100.00;99359.28;5110032;28;20198;-66
2022/05/03 04:27:07;;;;;;;6.63;6.23;;;;;;;13.85;100.00;99354.13;5111076;28;20260;-66
2022/05/03 04:29:36;;;;;;;7.37;6.83;;;;;;;13.86;100.00;99350.66;5108674;28;20694;-66
2022/05/03 04:32:03;;;;;;;6.70;6.30;;;;;;;13.86;100.00;99353.25;5115727;27;20197;-66
2022/05/03 04:34:30;;;;;;;7.17;6.50;;;;;;;13.79;100.00;99341.53;5107426;28;20191;-66
2022/05/03 04:36:59;;;;;;;8.90;6.03;;;;;;;13.89;100.00;99358.25;5110155;28;20274;-66
2022/05/03 04:39:26;;;;;;;6.43;6.03;;;;;;;13.88;100.00;99354.84;5111785;28;20278;-66
2022/05/03 04:41:53;;;;;;;5.67;5.17;;;;;;;13.87;100.00;99358.31;5108632;28;20317;-66
2022/05/03 04:44:20;;;;;;;5.43;5.13;;;;;;;13.89;100.00;99355.69;5110559;27;20607;-66
2022/05/03 04:46:48;;;;;;;6.47;5.80;;;;;;;13.85;100.00;99361.88;5107683;28;20293;-66
2022/05/03 04:49:15;;;;;;;5.43;4.63;;;;;;;13.86;100.00;99366.13;5109623;27;20590;-66
2022/05/03 04:51:42;;;;;;;5.00;4.60;;;;;;;13.84;100.00;99361.03;5111019;28;20198;-66
2022/05/03 04:54:09;;;;;;;4.70;4.50;;;;;;;13.83;100.00;99371.41;5110681;28;20209;-66
2022/05/03 04:56:36;;;;;;;4.70;4.33;;;;;;;13.83;100.00;99377.38;5102004;28;20195;-66
2022/05/03 04:59:04;;;;;;;4.23;4.03;;;;;;;13.85;100.00;99382.47;5109416;28;20570;-66
2022/05/03 05:01:31;;;;;;;4.10;3.90;;;;;;;13.84;100.00;99383.38;5102866;28;20289;-69
2022/05/03 05:03:59;;;;;;;3.80;3.50;;;;;;;13.84;100.00;99378.22;5108340;28;20697;-66
2022/05/03 05:06:26;;;;;;;3.40;3.17;;;;;;;13.86;100.00;99376.44;5106469;28;20302;-66
2022/05/03 05:08:53;;;;;;;4.33;4.13;;;;;;;13.85;100.00;99379.91;5107645;28;20218;-67
2022/05/03 05:11:20;;;;;;;4.70;4.45;;;;;;;13.89;100.00;99387.44;5106682;28;20439;-67
2022/05/03 05:13:46;;;;;;;5.00;4.60;;;;;;;13.96;100.00;99382.84;5109659;28;20469;-63
2022/05/03 05:16:13;;;;;;;4.03;3.83;;;;;;;14.06;100.00;99384.09;5110340;28;20215;-64
2022/05/03 05:18:40;;;;;;;3.80;3.50;;;;;;;14.06;100.00;99389.25;5107669;28;20195;-64
2022/05/03 05:21:10;;;;;;;4.00;3.80;;;;;;;14.05;100.00;99392.75;5111263;28;20286;-64
2022/05/03 05:23:37;;;;;;;3.93;3.73;;;;;;;14.00;100.00;99394.69;5111586;28;20201;-64
2022/05/03 05:26:04;;;;;;;3.70;3.23;;;;;;;13.95;100.00;99391.50;5111438;28;20209;-63
2022/05/03 05:28:31;;;;;;;3.83;3.63;;;;;;;13.87;100.00;99393.53;5111574;28;20628;-64
2022/05/03 05:30:58;;;;;;;10.80;4.07;;;;;;;13.71;100.00;99383.06;5111480;28;20213;-64
2022/05/03 05:33:25;;;;;;;3.10;3.00;;;;;;;13.71;100.00;99397.69;5111138;28;20190;-64
2022/05/03 05:35:52;;;;;;;6.33;3.97;;;;;;;13.64;100.00;99402.25;5111580;28;20699;-64
2022/05/03 05:38:20;;;;;;;4.30;4.10;;;;;;;13.55;100.00;99395.78;5110004;28;20190;-64
2022/05/03 05:40:48;;;;;;;4.60;4.20;;;;;;;13.51;100.00;99396.78;5111189;28;20210;-64
2022/05/03 05:43:16;;;;;;;3.70;3.10;;;;;;;13.50;100.00;99397.72;5110706;28;20321;-64
2022/05/03 05:45:43;;;;;;;3.00;2.83;;;;;;;13.30;100.00;99366.81;5110985;28;20297;-64
2022/05/03 05:48:10;;;;;;;3.27;3.07;;;;;;;13.48;100.00;99401.25;5110939;28;20309;-64
2022/05/03 05:50:37;;;;;;;3.03;2.93;;;;;;;13.47;100.00;99399.59;5111580;28;20195;-64
2022/05/03 05:55:51;;;;;;;3.27;2.97;;;;;;;13.37;100.00;99399.13;5110891;28;20592;-64
2022/05/03 05:58:19;;;;;;;3.07;2.93;;;;;;;13.42;100.00;99410.06;5111225;28;20199;-64
2022/05/03 06:00:45;;;;;;;2.70;2.60;;;;;;;13.42;100.00;99412.63;5111431;28;20190;-64
2022/05/03 06:03:14;;;;;;;3.57;2.50;;;;;;;13.39;100.00;99412.78;5111446;28;20197;-64
2022/05/03 06:05:41;;;;;;;4.80;3.10;;;;;;;13.41;100.00;99416.09;5111692;28;20217;-64
2022/05/03 06:08:09;;;;;;;3.37;3.03;;;;;;;13.39;100.00;99423.06;5111404;28;20207;-64
2022/05/03 06:10:36;;;;;;;3.37;3.07;;;;;;;13.42;100.00;99417.78;5111149;28;20665;-64
2022/05/03 06:13:05;;;;;;;3.23;2.27;;;;;;;13.47;100.00;99421.00;5111567;28;20289;-64
2022/05/03 06:15:32;;;;;;;3.70;2.47;;;;;;;13.54;100.00;99422.41;5111366;28;20718;-64
2022/05/03 06:17:59;;;;;;;2.73;2.63;;;;;;;13.42;100.00;99402.34;5111448;28;20630;-64
2022/05/03 06:20:26;;;;;;;2.83;2.73;;;;;;;13.50;100.00;99415.75;5111188;28;20277;-64
2022/05/03 06:22:53;;;;;;;2.90;2.80;;;;;;;13.56;100.00;99424.94;5111140;28;20285;-64
2022/05/03 06:25:20;;;;;;;2.50;2.40;;;;;;;13.55;100.00;99421.53;5111762;28;20209;-64
2022/05/03 06:27:47;;;;;;;2.60;2.50;;;;;;;13.58;100.00;99429.13;5111009;28;20230;-64
2022/05/03 06:30:16;;;;;;;2.43;2.33;;;;;;;13.60;100.00;99432.47;5111238;28;20282;-64
2022/05/03 06:32:43;;;;;;;2.60;2.50;;;;;;;13.61;100.00;99434.16;5111066;28;20195;-64
2022/05/03 06:35:12;;;;;;;2.70;2.60;;;;;;;13.63;100.00;99426.38;5109879;28;20194;-64
2022/05/03 06:37:40;;;;;;;2.40;2.30;;;;;;;13.58;100.00;99423.97;5110931;28;20201;-64
2022/05/03 06:40:09;;;;;;;2.60;2.40;;;;;;;13.56;100.00;99427.53;5111078;28;20203;-64
2022/05/03 06:42:37;;;;;;;2.57;2.47;;;;;;;13.55;100.00;99431.84;5110796;28;20706;-64
2022/05/03 06:45:04;;;;;;;2.53;2.43;;;;;;;13.51;100.00;99427.69;5115109;28;20255;-64
2022/05/03 06:47:33;;;;;;;2.60;2.50;;;;;;;13.45;100.00;99420.25;5115359;28;20289;-64
2022/05/03 06:50:00;;;;;;;2.33;2.23;;;;;;;13.40;100.00;99427.31;5114287;28;20682;-64
2022/05/03 06:52:27;;;;;;;2.30;2.20;;;;;;;13.35;100.00;99436.13;5115348;28;20203;-64
2022/05/03 06:54:56;;;;;;;2.77;2.57;;;;;;;13.18;100.00;99428.25;5113894;28;20251;-65
2022/05/03 06:57:23;;;;;;;2.30;2.20;;;;;;;13.30;100.00;99438.91;5115142;28;20648;-64
2022/05/03 06:59:50;;;;;;;2.43;2.33;;;;;;;13.32;100.00;99439.66;5115044;28;20210;-64
2022/05/03 07:02:17;;;;;;;2.10;2.00;;;;;;;13.36;100.00;99442.94;5114760;28;20290;-64
2022/05/03 07:04:46;;;;;;;2.40;2.30;;;;;;;13.28;100.00;99430.38;5114764;28;20285;-64
2022/05/03 07:07:13;;;;;;;2.53;2.43;;;;;;;13.40;100.00;99442.78;5114891;27;20256;-64
2022/05/03 07:09:41;;;;;;;1.77;1.77;;;;;;;13.44;100.00;99436.56;5114611;28;20618;-64
2022/05/03 07:12:09;;;;;;;2.50;2.40;;;;;;;13.37;100.00;99430.03;5114156;28;20243;-65
2022/05/03 07:14:36;;;;;;;2.17;2.07;;;;;;;13.49;100.00;99434.66;5112262;28;20750;-65
2022/05/03 07:17:03;;;;;;;2.73;2.60;;;;;;;13.58;100.00;99434.28;5114389;28;20210;-65
2022/05/03 07:25:00;;;;;;;2.37;2.17;;;;;;;13.60;100.00;99432.47;5114440;28;20205;-65
2022/05/03 07:27:27;;;;;;;3.50;2.40;;;;;;;13.68;100.00;99438.16;5114380;28;20199;-65
2022/05/03 07:29:54;;;;;;;2.20;2.10;;;;;;;13.72;100.00;99440.59;5114499;28;20295;-65
2022/05/03 07:32:21;;;;;;;2.40;2.30;;;;;;;13.79;100.00;99442.00;5114480;28;20281;-65
2022/05/03 07:34:48;;;;;;;2.40;2.30;;;;;;;13.59;100.00;99417.94;5114488;28;20198;-65
2022/05/03 07:37:16;;;;;;;2.10;2.00;;;;;;;13.77;100.00;99443.81;5114343;28;20199;-65
2022/05/03 07:39:43;;;;;;;2.40;2.30;;;;;;;13.77;100.00;99448.94;5114124;28;20718;-65
2022/05/03 07:42:10;;;;;;;2.00;1.90;;;;;;;13.81;100.00;99440.19;5113833;28;20316;-65
2022/05/03 07:44:37;;;;;;;2.00;1.90;;;;;;;13.84;100.00;99446.06;5114397;28;20618;-65
2022/05/03 07:47:04;;;;;;;2.23;2.03;;;;;;;13.85;100.00;99441.75;5113841;28;20195;-65
2022/05/03 07:49:31;;;;;;;2.43;1.50;;;;;;;13.69;100.00;99449.28;5112844;28;20305;-65
2022/05/03 07:51:58;;;;;;;4.40;1.97;;;;;;;13.70;100.00;99452.72;5113090;28;20203;-64
2022/05/03 07:54:27;;;;;;;1.90;1.33;;;;;;;13.77;100.00;99454.09;5113502;28;20336;-65
2022/05/03 07:56:56;;;;;;;1.30;1.30;;;;;;;13.74;100.00;99437.03;5110065;28;20578;-65
2022/05/03 07:59:25;;;;;;;1.70;1.60;;;;;;;13.94;100.00;99447.34;5111510;28;20723;-65
2022/05/03 08:01:52;;;;;;;1.63;1.53;;;;;;;14.07;100.00;99447.66;5113592;28;20195;-61
2022/05/03 08:04:20;;;;;;;1.20;1.20;;;;;;;14.14;99.01;99446.47;5113661;28;20209;-61
2022/05/03 08:06:46;;;;;;;1.60;1.60;;;;;;;14.02;94.09;99450.41;5113900;28;20197;-61
2022/05/03 08:09:14;;;;;;;2.07;1.97;;;;;;;13.85;94.81;99437.44;5113186;28;20215;-61
2022/05/03 08:11:42;;;;;;;1.10;1.10;;;;;;;13.73;92.96;99450.84;5113572;28;20290;-61
2022/05/03 08:14:09;;;;;;;1.20;1.20;;;;;;;13.69;92.52;99451.88;5113484;28;20251;-61
2022/05/03 08:16:36;;;;;;;1.63;1.60;;;;;;;13.72;93.67;99445.75;5113425;28;20660;-61
2022/05/03 08:19:03;;;;;;;1.23;1.23;;;;;;;13.79;95.30;99447.16;5113567;28;20285;-61
2022/05/03 08:21:32;;;;;;;1.37;1.37;;;;;;;13.90;94.47;99452.69;5113150;28;20202;-61
2022/05/03 08:23:59;;;;;;;1.90;1.87;;;;;;;14.02;94.59;99455.56;5113566;27;20663;-61
2022/05/03 08:26:26;;;;;;;1.70;1.60;;;;;;;14.00;94.55;99461.69;5113233;28;20206;-60
2022/05/03 08:28:55;;;;;;;1.27;1.27;;;;;;;13.87;92.06;99460.53;5113215;28;20298;-61
2022/05/03 08:31:22;;;;;;;1.80;1.40;;;;;;;13.95;93.26;99469.66;5113433;28;20640;-61
2022/05/03 08:33:49;;;;;;;1.37;1.30;;;;;;;13.85;90.84;99470.09;5112904;28;20277;-61
2022/05/03 08:36:16;;;;;;;1.87;1.77;;;;;;;13.64;93.00;99464.09;5113003;28;20273;-62
2022/05/03 08:44:14;;;;;;;1.33;1.33;;;;;;;13.74;94.42;99474.84;5113315;28;20223;-61
2022/05/03 08:46:43;;;;;;;1.77;1.67;;;;;;;13.84;95.82;99471.00;5108135;28;20297;-61
2022/05/03 08:49:13;;;;;;;4.00;3.80;;;;;;;13.91;95.67;99468.09;5112146;28;20583;-61
2022/05/03 08:51:43;;;;;;;2.20;2.10;;;;;;;14.03;96.25;99477.03;5112690;28;20191;-61
2022/05/03 08:54:11;;;;;;;2.43;2.30;;;;;;;13.76;90.73;99452.44;5112628;28;20286;-61
2022/05/03 08:56:38;;;;;;;1.73;1.70;;;;;;;13.75;90.25;99458.50;5112449;28;20190;-61
2022/05/03 08:59:05;;;;;;;3.53;3.23;;;;;;;13.95;91.83;99479.13;5112673;28;20230;-61
2022/05/03 09:01:33;;;;;;;1.87;1.77;;;;;;;13.97;93.11;99473.00;5112457;28;20201;-61
2022/05/03 09:04:00;;;;;;;2.10;2.00;;;;;;;13.83;88.51;99479.66;5112293;28;20252;-61
2022/05/03 09:06:41;;;;;;;2.20;2.10;;;;;;;13.69;87.12;99482.78;5111697;28;20194;-60
2022/05/03 09:09:11;;;;;;;1.70;1.70;;;;;;;13.79;89.55;99484.09;5112366;28;20212;-61
2022/05/03 09:11:45;;;;;;;1.70;1.70;;;;;;;13.79;87.53;99485.81;5112289;28;20245;-61
2022/05/03 09:14:12;;;;;;;2.60;1.57;;;;;;;13.73;88.81;99488.66;5112724;28;20693;-62
2022/05/03 09:16:50;;;;;;;1.60;1.57;;;;;;;13.82;89.97;99481.38;5112234;28;20198;-62
2022/05/03 09:19:24;;;;;;;1.33;1.33;;;;;;;13.94;90.37;99487.75;5111513;28;20195;-62
2022/05/03 09:24:54;;;;;;;1.13;1.00;;;;;;;14.04;87.95;99478.72;5109444;28;20594;-62
2022/05/03 09:27:22;;;;;;;1.40;1.30;;;;;;;14.04;85.31;99479.56;5111322;28;20289;-62
2022/05/03 09:30:04;;;;;;;1.30;1.30;;;;;;;14.04;84.66;99478.72;5112002;28;20211;-62
2022/05/03 09:32:37;;;;;;;2.17;1.90;;;;;;;14.05;84.40;99470.94;5108165;28;20281;-62
2022/05/03 09:35:05;;;;;;;1.60;1.60;;;;;;;14.15;87.60;99471.38;5110062;28;20194;-62
2022/05/03 09:37:41;;;;;;;1.40;1.30;;;;;;;14.24;90.28;99468.38;5108282;28;20282;-62
2022/05/03 09:40:12;;;;;;;1.40;1.40;;;;;;;14.33;90.90;99470.59;5112170;28;20570;-62
2022/05/03 09:42:40;;;;;;;1.57;1.33;;;;;;;14.37;89.97;99468.72;5111522;28;20226;-62
2022/05/03 09:45:09;;;;;;;1.63;1.53;;;;;;;14.35;88.20;99468.75;5111946;28;20587;-62
2022/05/03 09:47:51;;;;;;;1.27;1.27;;;;;;;14.41;86.83;99468.50;5107283;28;20199;-62
2022/05/03 09:50:36;;;;;;;1.87;1.77;;;;;;;14.47;86.33;99472.56;5111772;28;20218;-62
2022/05/03 09:53:09;;;;;;;1.50;1.47;;;;;;;14.51;86.84;99469.75;5111597;28;20311;-62
2022/05/03 09:55:38;;;;;;;1.37;1.37;;;;;;;14.61;86.39;99476.19;5111746;28;20194;-62
2022/05/03 09:58:06;;;;;;;1.50;1.50;;;;;;;14.66;85.86;99468.25;5111569;28;20285;-62
2022/05/03 10:00:34;;;;;;;1.17;1.17;;;;;;;14.73;86.85;99471.38;5111627;28;20205;-62
2022/05/03 10:03:05;;;;;;;1.63;1.53;;;;;;;14.73;84.91;99473.97;5111505;28;20202;-62
2022/05/03 10:05:32;;;;;;;1.23;1.23;;;;;;;14.73;85.72;99475.59;5111467;28;20199;-62
2022/05/03 10:07:59;;;;;;;1.40;1.27;;;;;;;14.67;89.77;99470.72;5111122;28;20252;-62
2022/05/03 10:10:27;;;;;;;1.63;1.63;;;;;;;14.73;89.01;99470.44;5111735;28;20765;-62
2022/05/03 10:12:54;;;;;;;1.50;1.33;;;;;;;14.72;86.57;99462.78;5111535;28;20190;-62
2022/05/03 10:20:57;;;;;;;1.37;1.37;;;;;;;14.75;87.29;99472.13;5111638;28;20340;-62
2022/05/03 10:23:25;;;;;;;1.60;1.60;;;;;;;14.77;86.93;99470.31;5109354;28;20734;-62
2022/05/03 10:25:54;;;;;;;1.37;1.37;;;;;;;14.79;85.84;99461.63;5111286;28;20746;-62
2022/05/03 10:28:22;;;;;;;1.23;1.20;;;;;;;14.85;87.59;99458.75;5108531;28;20237;-62
2022/05/03 10:31:13;;;;;;;1.47;1.47;;;;;;;14.94;89.41;99452.31;5111129;28;20301;-62
2022/05/03 10:33:43;;;;;;;1.50;1.50;;;;;;;14.95;89.78;99451.41;5111188;28;20198;-62
2022/05/03 10:36:42;;;;;;;1.83;1.53;;;;;;;15.04;88.66;99463.88;5111126;28;20264;-62
2022/05/03 10:39:30;;;;;;;1.40;1.40;;;;;;;15.09;90.14;99461.91;5108875;28;20210;-62
2022/05/03 10:41:59;;;;;;;1.40;1.40;;;;;;;15.15;90.91;99461.63;5103366;28;20225;-62
2022/05/03 10:44:43;;;;;;;1.67;1.67;;;;;;;15.18;87.18;99464.91;5109276;28;20199;-62
2022/05/03 10:47:11;;;;;;;1.43;1.43;;;;;;;15.26;86.11;99454.19;5111052;28;20202;-62
2022/05/03 10:50:10;;;;;;;1.50;1.50;;;;;;;15.28;86.51;99459.28;5111077;28;20217;-62
2022/05/03 10:52:39;;;;;;;1.30;1.30;;;;;;;15.34;88.26;99459.00;5109261;28;20285;-62
2022/05/03 10:55:07;;;;;;;1.63;1.50;;;;;;;15.33;85.15;99450.41;5111009;28;20307;-62
2022/05/03 10:57:54;;;;;;;1.30;1.30;;;;;;;15.37;84.03;99459.69;5111037;28;20236;-62
2022/05/03 11:00:54;;;;;;;1.13;1.13;;;;;;;15.50;88.05;99460.78;5110628;28;20195;-62
2022/05/03 11:03:22;;;;;;;1.20;1.20;;;;;;;15.61;87.94;99457.66;5110964;28;20646;-62
2022/05/03 11:06:22;;;;;;;1.37;1.37;;;;;;;15.57;76.97;99459.56;5110909;28;20262;-62
2022/05/03 11:09:15;;;;;;;2.30;1.60;;;;;;;15.46;80.16;99455.81;5111116;28;20654;-62
2022/05/03 11:12:09;;;;;;;1.30;1.30;;;;;;;15.54;79.81;99459.72;5111232;28;20227;-62
2022/05/03 11:14:50;;;;;;;1.27;1.27;;;;;;;15.63;80.21;99453.25;5110998;28;20570;-62
2022/05/03 11:17:18;;;;;;;2.07;1.97;;;;;;;15.64;84.48;99455.75;5108332;28;20281;-62
2022/05/03 11:20:02;;;;;;;4.83;1.30;;;;;;;15.68;83.76;99446.09;5111189;28;20567;-62
2022/05/03 11:22:35;;;;;;;1.20;1.20;;;;;;;15.63;80.89;99446.34;5109041;28;20289;-62
2022/05/03 11:25:13;;;;;;;1.63;1.63;;;;;;;15.66;78.77;99443.63;5110740;28;20203;-62
2022/05/03 11:27:41;;;;;;;1.63;1.63;;;;;;;15.77;81.55;99437.06;5110908;28;20195;-62
2022/05/03 11:30:10;;;;;;;1.30;1.30;;;;;;;15.82;78.76;99437.66;5111667;28;20264;-62
2022/05/03 11:32:40;;;;;;;1.80;1.80;;;;;;;15.86;78.83;99437.44;5114678;28;20218;-62
2022/05/03 11:35:12;;;;;;;3.47;1.87;;;;;;;15.97;81.33;99435.13;5113641;28;20730;-62
2022/05/03 11:37:47;;;;;;;1.80;1.80;;;;;;;16.07;86.04;99427.72;5114366;28;20285;-62
2022/05/03 11:40:16;;;;;;;1.33;1.33;;;;;;;15.99;85.58;99422.13;5114386;28;20694;-62
2022/05/03 11:42:45;;;;;;;1.77;1.60;;;;;;;16.14;85.19;99429.09;5113613;28;20263;-62
2022/05/03 11:45:14;;;;;;;1.50;1.50;;;;;;;16.20;83.47;99423.59;5114567;28;20260;-62
2022/05/03 11:47:43;;;;;;;1.50;1.50;;;;;;;16.28;86.14;99418.84;5114276;27;20195;-62
2022/05/03 11:55:58;;;;;;;1.47;1.47;;;;;;;16.24;82.78;99419.94;5114073;28;20218;-62
2022/05/03 11:56:04;;;;;;;1.40;1.40;;;;;;;16.15;79.31;99402.31;5113596;28;20206;-62
2022/05/03 11:58:33;;;;;;;1.80;1.63;;;;;;;16.42;83.55;99418.94;5110205;28;20197;-62
2022/05/03 12:01:00;;;;;;;1.33;1.33;;;;;;;16.44;79.66;99419.72;5113681;28;20202;-62
2022/05/03 12:03:28;;;;;;;1.80;1.30;;;;;;;16.42;73.96;99423.28;5113786;28;20195;-62
2022/05/03 12:06:03;;;;;;;1.67;1.57;;;;;;;16.42;75.37;99408.59;5113806;28;20201;-62
2022/05/03 12:08:30;;;;;;;1.50;1.50;;;;;;;16.51;78.33;99391.75;5113822;28;20290;-62
2022/05/03 12:10:58;;;;;;;1.70;1.60;;;;;;;16.71;74.63;99419.97;5113183;28;20215;-62
2022/05/03 12:13:31;;;;;;;1.37;1.37;;;;;;;16.73;80.89;99408.66;5113977;27;20728;-62
2022/05/03 12:16:15;;;;;;;1.67;1.60;;;;;;;16.89;78.66;99419.00;5113517;28;20198;-62